createdAt,value
2019-05-11T17:29:48.852Z,9.00
2019-05-11T17:30:48.689Z,8.60
2019-05-11T17:32:30.355Z,7.40
2019-05-11T17:33:30.354Z,11.70
2019-05-11T17:34:30.318Z,9.00
2019-05-11T17:35:30.301Z,9.80
2019-05-11T17:36:30.290Z,6.30
2019-05-11T17:37:30.303Z,8.40
2019-05-11T17:38:39.185Z,10.30
2019-05-11T17:40:12.385Z,8.90
2019-05-11T17:41:11.921Z,8.70
2019-05-11T17:42:11.907Z,11.40
2019-05-11T17:43:11.889Z,9.10
2019-05-11T17:44:11.881Z,10.40
2019-05-11T17:45:11.862Z,9.10
2019-05-11T17:46:11.874Z,9.70
2019-05-11T17:47:11.847Z,8.80
2019-05-11T17:48:11.833Z,9.70
2019-05-11T17:49:11.849Z,7.00
2019-05-11T17:50:11.813Z,11.30
2019-05-11T17:51:21.371Z,7.70
2019-05-11T17:52:12.789Z,8.50
2019-05-11T17:53:11.839Z,5.80
2019-05-11T17:54:11.765Z,5.80
2019-05-11T17:55:11.760Z,10.70
2019-05-11T17:56:11.750Z,9.40
2019-05-11T17:57:11.838Z,8.30
2019-05-11T17:58:11.746Z,7.20
2019-05-11T17:59:11.724Z,8.60
2019-05-11T18:00:11.705Z,11.70
2019-05-11T18:01:11.693Z,10.90
2019-05-11T18:02:11.688Z,10.30
2019-05-11T18:03:11.771Z,11.80
2019-05-11T18:04:11.670Z,9.90
2019-05-11T18:05:11.641Z,12.50
2019-05-11T18:06:11.711Z,13.80
2019-05-11T18:07:24.300Z,14.60
2019-05-11T18:08:12.618Z,13.00
2019-05-11T18:09:11.607Z,15.90
2019-05-11T18:10:11.626Z,14.70
2019-05-11T18:11:11.577Z,21.20
2019-05-11T18:12:11.577Z,19.00
2019-05-11T18:13:11.549Z,19.80
2019-05-11T18:14:11.628Z,21.90
2019-05-11T18:15:11.528Z,18.40
2019-05-11T18:16:11.534Z,22.30
2019-05-11T18:17:11.510Z,18.30
2019-05-11T18:18:11.519Z,17.50
2019-05-11T18:19:11.493Z,15.40
2019-05-11T18:20:17.295Z,12.90
2019-05-11T18:21:12.470Z,14.80
2019-05-11T18:22:11.463Z,12.40
2019-05-11T18:23:11.441Z,12.30
2019-05-11T18:24:11.431Z,11.60
2019-05-11T18:25:13.889Z,13.50
2019-05-11T18:26:11.412Z,11.70
2019-05-11T18:27:11.586Z,10.80
2019-05-11T18:28:14.152Z,11.60
2019-05-11T18:29:11.401Z,10.70
2019-05-11T18:30:11.409Z,14.50
2019-05-11T18:31:11.371Z,15.00
2019-05-11T18:32:11.363Z,11.90
2019-05-11T18:33:11.471Z,15.20
2019-05-11T18:34:11.336Z,12.90
2019-05-11T18:35:11.327Z,15.80
2019-05-11T18:36:11.373Z,8.80
2019-05-11T18:37:11.438Z,10.10
2019-05-11T18:38:11.689Z,11.40
2019-05-11T18:39:11.323Z,11.40
2019-05-11T18:40:11.327Z,10.10
2019-05-11T18:41:11.412Z,9.60
2019-05-11T18:42:11.266Z,10.60
2019-05-11T18:43:11.253Z,10.90
2019-05-11T18:44:11.352Z,9.40
2019-05-11T18:45:11.211Z,10.60
2019-05-11T18:46:11.193Z,11.20
2019-05-11T18:47:11.243Z,8.40
2019-05-11T18:48:11.277Z,11.40
2019-05-11T18:49:11.183Z,7.60
2019-05-11T18:50:11.240Z,6.70
2019-05-11T18:51:11.197Z,9.80
2019-05-11T18:52:11.177Z,8.30
2019-05-11T18:53:11.288Z,9.20
2019-05-11T18:54:11.280Z,8.00
2019-05-11T18:55:11.425Z,6.90
2019-05-11T18:56:11.156Z,8.20
2019-05-11T18:57:11.108Z,8.30
2019-05-11T18:58:11.152Z,14.40
2019-05-11T18:59:11.097Z,11.00
2019-05-11T19:00:11.352Z,10.20
2019-05-11T19:01:11.248Z,9.70
2019-05-11T19:02:11.359Z,9.50
2019-05-11T19:03:11.204Z,11.40
2019-05-11T19:04:11.078Z,10.80
2019-05-11T19:05:11.353Z,9.30
2019-05-11T19:06:10.985Z,12.30
2019-05-11T19:07:16.715Z,14.00
2019-05-11T19:08:12.057Z,12.00
2019-05-11T19:09:10.995Z,9.70
2019-05-11T19:10:11.044Z,9.90
2019-05-11T19:11:10.915Z,8.90
2019-05-11T19:12:10.934Z,9.70
2019-05-11T19:13:10.927Z,9.70
2019-05-11T19:14:10.901Z,6.10
2019-05-11T19:15:10.886Z,7.40
2019-05-11T19:16:10.870Z,8.80
2019-05-11T19:17:10.944Z,8.90
2019-05-11T19:18:10.869Z,8.20
2019-05-11T19:19:10.899Z,8.90
2019-05-11T19:20:10.854Z,8.60
2019-05-11T19:21:10.820Z,7.60
2019-05-11T19:22:10.810Z,6.80
2019-05-11T19:23:10.821Z,6.10
2019-05-11T19:24:10.801Z,9.10
2019-05-11T19:25:10.858Z,8.40
2019-05-11T19:26:10.870Z,10.50
2019-05-11T19:27:11.119Z,10.10
2019-05-11T19:28:10.948Z,9.50
2019-05-11T19:29:10.843Z,9.20
2019-05-11T19:30:10.739Z,6.20
2019-05-11T19:31:11.152Z,10.20
2019-05-11T19:32:11.107Z,7.70
2019-05-11T19:33:11.200Z,9.00
2019-05-11T19:34:10.690Z,7.40
2019-05-11T19:35:10.711Z,7.10
2019-05-11T19:36:10.768Z,9.80
2019-05-11T19:37:10.708Z,5.40
2019-05-11T19:38:10.718Z,6.20
2019-05-11T19:39:10.616Z,5.00
2019-05-11T19:40:10.618Z,9.20
2019-05-11T19:41:10.727Z,9.50
2019-05-11T19:42:10.900Z,8.10
2019-05-11T19:43:10.681Z,7.90
2019-05-11T19:44:10.887Z,7.20
2019-05-11T19:45:10.857Z,6.30
2019-05-11T19:46:10.576Z,4.60
2019-05-11T19:47:10.585Z,8.30
2019-05-11T19:48:10.581Z,6.00
2019-05-11T19:49:10.615Z,9.50
2019-05-11T19:50:10.600Z,8.20
2019-05-11T19:51:11.996Z,7.50
2019-05-11T19:52:10.540Z,6.80
2019-05-11T19:53:10.647Z,7.70
2019-05-11T19:54:10.514Z,9.30
2019-05-11T19:55:10.515Z,10.70
2019-05-11T19:56:10.635Z,6.90
2019-05-11T19:57:10.482Z,8.00
2019-05-11T19:58:10.492Z,10.20
2019-05-11T19:59:10.480Z,6.10
2019-05-11T20:00:11.396Z,7.40
2019-05-11T20:01:10.441Z,7.80
2019-05-11T20:02:10.366Z,6.00
2019-05-11T20:03:10.475Z,8.40
2019-05-11T20:04:10.353Z,10.60
2019-05-11T20:05:10.343Z,6.60
2019-05-11T20:06:10.323Z,10.50
2019-05-11T20:07:10.339Z,9.20
2019-05-11T20:08:10.339Z,9.30
2019-05-11T20:09:10.308Z,5.30
2019-05-11T20:10:10.339Z,6.10
2019-05-11T20:11:10.364Z,5.90
2019-05-11T20:12:10.298Z,4.90
2019-05-11T20:13:10.304Z,7.20
2019-05-11T20:14:10.308Z,6.50
2019-05-11T20:15:10.238Z,6.00
2019-05-11T20:16:10.256Z,3.90
2019-05-11T20:17:10.256Z,5.20
2019-05-11T20:18:10.249Z,5.90
2019-05-11T20:19:10.172Z,8.00
2019-05-11T20:20:10.238Z,5.70
2019-05-11T20:21:18.673Z,6.20
2019-05-11T20:22:11.149Z,5.50
2019-05-11T20:23:10.195Z,5.30
2019-05-11T20:24:10.172Z,6.40
2019-05-11T20:25:10.111Z,6.50
2019-05-11T20:26:10.121Z,8.40
2019-05-11T20:27:10.112Z,6.50
2019-05-11T20:28:10.090Z,6.00
2019-05-11T20:29:10.064Z,5.90
2019-05-11T20:30:10.054Z,7.00
2019-05-11T20:31:10.051Z,7.50
2019-05-11T20:32:10.069Z,5.10
2019-05-11T20:33:10.026Z,5.40
2019-05-11T20:34:10.016Z,5.60
2019-05-11T20:35:10.015Z,8.90
2019-05-11T20:36:09.986Z,5.10
2019-05-11T20:37:09.992Z,5.80
2019-05-11T20:38:09.963Z,6.30
2019-05-11T20:39:09.967Z,6.70
2019-05-11T20:40:09.970Z,5.90
2019-05-11T20:41:09.974Z,5.30
2019-05-11T20:42:09.938Z,5.00
2019-05-11T20:43:09.931Z,5.50
2019-05-11T20:44:09.908Z,4.80
2019-05-11T20:45:09.901Z,5.20
2019-05-11T20:46:09.959Z,6.60
2019-05-11T20:47:09.877Z,6.80
2019-05-11T20:48:09.862Z,4.80
2019-05-11T20:49:09.859Z,4.80
2019-05-11T20:50:09.873Z,4.70
2019-05-11T20:51:09.836Z,7.10
2019-05-11T20:52:09.812Z,5.30
2019-05-11T20:53:09.807Z,8.20
2019-05-11T20:54:09.814Z,4.50
2019-05-11T20:55:09.792Z,7.20
2019-05-11T20:56:09.771Z,5.40
2019-05-11T20:57:09.756Z,4.00
2019-05-11T20:58:09.750Z,4.40
2019-05-11T20:59:09.738Z,4.10
2019-05-11T21:00:09.755Z,2.80
2019-05-11T21:01:09.722Z,4.90
2019-05-11T21:02:09.709Z,6.30
2019-05-11T21:03:09.707Z,6.10
2019-05-11T21:04:09.749Z,5.30
2019-05-11T21:05:09.686Z,5.60
2019-05-11T21:06:09.717Z,6.60
2019-05-11T21:07:09.707Z,4.70
2019-05-11T21:08:09.654Z,5.00
2019-05-11T21:09:09.624Z,3.30
2019-05-11T21:10:09.626Z,4.20
2019-05-11T21:11:18.076Z,5.30
2019-05-11T21:12:10.607Z,5.90
2019-05-11T21:13:09.616Z,4.20
2019-05-11T21:14:09.591Z,4.60
2019-05-11T21:15:09.608Z,4.90
2019-05-11T21:16:09.585Z,3.60
2019-05-11T21:17:09.682Z,5.90
2019-05-11T21:18:09.590Z,8.00
2019-05-11T21:19:09.533Z,5.10
2019-05-11T21:20:09.521Z,4.10
2019-05-11T21:21:09.502Z,4.30
2019-05-11T21:22:09.492Z,5.10
2019-05-11T21:23:09.509Z,4.00
2019-05-11T21:24:09.500Z,5.00
2019-05-11T21:25:09.466Z,6.20
2019-05-11T21:26:10.014Z,4.50
2019-05-11T21:27:09.473Z,4.20
2019-05-11T21:28:09.427Z,4.10
2019-05-11T21:29:09.438Z,4.00
2019-05-11T21:30:09.735Z,3.30
2019-05-11T21:31:09.445Z,4.10
2019-05-11T21:32:09.446Z,2.30
2019-05-11T21:33:09.367Z,3.50
2019-05-11T21:34:09.391Z,5.00
2019-05-11T21:35:09.555Z,4.60
2019-05-11T21:36:09.443Z,5.60
2019-05-11T21:37:09.323Z,5.00
2019-05-11T21:38:09.323Z,3.60
2019-05-11T21:39:09.354Z,5.20
2019-05-11T21:40:09.320Z,4.80
2019-05-11T21:41:09.342Z,3.80
2019-05-11T21:42:09.290Z,4.80
2019-05-11T21:43:09.311Z,4.30
2019-05-11T21:44:09.255Z,3.60
2019-05-11T21:45:09.777Z,3.30
2019-05-11T21:46:09.249Z,4.20
2019-05-11T21:47:09.215Z,2.90
2019-05-11T21:48:09.215Z,4.50
2019-05-11T21:49:09.212Z,6.60
2019-05-11T21:50:09.217Z,3.30
2019-05-11T21:51:09.167Z,3.70
2019-05-11T21:52:09.195Z,4.60
2019-05-11T21:53:10.623Z,4.10
2019-05-11T21:54:09.145Z,3.30
2019-05-11T21:55:09.829Z,4.80
2019-05-11T21:56:09.118Z,3.40
2019-05-11T21:57:09.129Z,4.10
2019-05-11T21:58:09.195Z,4.80
2019-05-11T21:59:09.121Z,4.30
2019-05-11T22:00:09.251Z,3.10
2019-05-11T22:01:09.072Z,5.20
2019-05-11T22:02:11.082Z,3.50
2019-05-11T22:03:10.376Z,4.20
2019-05-11T22:04:11.293Z,4.30
2019-05-11T22:05:09.007Z,4.50
2019-05-11T22:06:09.033Z,4.70
2019-05-11T22:07:09.057Z,4.00
2019-05-11T22:08:08.982Z,4.60
2019-05-11T22:09:09.184Z,3.60
2019-05-11T22:10:09.247Z,2.90
2019-05-11T22:11:08.936Z,3.80
2019-05-11T22:12:10.832Z,2.50
2019-05-11T22:13:09.006Z,2.90
2019-05-11T22:14:08.912Z,3.90
2019-05-11T22:15:09.512Z,4.70
2019-05-11T22:16:09.012Z,4.30
2019-05-11T22:17:08.911Z,5.30
2019-05-11T22:18:08.911Z,3.60
2019-05-11T22:19:09.129Z,4.60
2019-05-11T22:20:08.891Z,3.50
2019-05-11T22:21:08.883Z,4.40
2019-05-11T22:22:21.129Z,3.20
2019-05-11T22:23:09.847Z,2.50
2019-05-11T22:24:08.827Z,5.20
2019-05-11T22:25:08.945Z,3.90
2019-05-11T22:26:08.891Z,3.40
2019-05-11T22:27:08.791Z,2.50
2019-05-11T22:28:08.756Z,3.90
2019-05-11T22:29:08.772Z,3.20
2019-05-11T22:30:08.838Z,4.20
2019-05-11T22:31:08.717Z,4.80
2019-05-11T22:32:08.703Z,3.70
2019-05-11T22:33:08.945Z,4.70
2019-05-11T22:34:09.009Z,4.50
2019-05-11T22:35:08.673Z,3.70
2019-05-11T22:36:08.669Z,4.80
2019-05-11T22:37:08.774Z,3.30
2019-05-11T22:38:08.670Z,4.40
2019-05-11T22:39:08.647Z,2.40
2019-05-11T22:40:08.793Z,6.80
2019-05-11T22:41:09.171Z,4.60
2019-05-11T22:42:08.602Z,3.20
2019-05-11T22:43:09.475Z,6.30
2019-05-11T22:44:11.061Z,6.40
2019-05-11T22:45:08.816Z,2.90
2019-05-11T22:46:08.546Z,3.00
2019-05-11T22:47:09.062Z,2.60
2019-05-11T22:48:08.526Z,3.60
2019-05-11T22:49:08.633Z,5.50
2019-05-11T22:50:08.514Z,3.40
2019-05-11T22:51:08.486Z,2.80
2019-05-11T22:52:08.752Z,5.00
2019-05-11T22:53:11.379Z,6.80
2019-05-11T22:54:11.138Z,5.10
2019-05-11T22:55:11.603Z,4.80
2019-05-11T22:56:08.434Z,4.10
2019-05-11T22:57:08.440Z,2.20
2019-05-11T22:58:08.715Z,4.40
2019-05-11T22:59:08.447Z,4.40
2019-05-11T23:00:08.405Z,4.70
2019-05-11T23:01:08.607Z,5.30
2019-05-11T23:02:10.863Z,6.30
2019-05-11T23:03:11.001Z,4.60
2019-05-11T23:04:08.350Z,5.50
2019-05-11T23:05:08.831Z,4.80
2019-05-11T23:06:08.612Z,4.50
2019-05-11T23:07:08.303Z,6.20
2019-05-11T23:08:08.298Z,4.50
2019-05-11T23:09:08.291Z,8.40
2019-05-11T23:10:08.752Z,4.90
2019-05-11T23:11:10.461Z,4.80
2019-05-11T23:12:09.003Z,3.30
2019-05-11T23:13:11.128Z,3.30
2019-05-11T23:14:10.050Z,3.80
2019-05-11T23:15:08.230Z,5.50
2019-05-11T23:16:08.595Z,5.40
2019-05-11T23:17:08.261Z,3.90
2019-05-11T23:18:08.765Z,2.70
2019-05-11T23:19:09.723Z,3.90
2019-05-11T23:20:08.169Z,4.30
2019-05-11T23:21:08.748Z,2.90
2019-05-11T23:22:08.420Z,3.50
2019-05-11T23:23:08.881Z,5.90
2019-05-11T23:24:08.120Z,3.80
2019-05-11T23:25:08.172Z,5.00
2019-05-11T23:26:08.597Z,4.70
2019-05-11T23:27:08.134Z,4.20
2019-05-11T23:28:08.083Z,5.10
2019-05-11T23:29:08.284Z,4.80
2019-05-11T23:30:08.713Z,4.10
2019-05-11T23:31:09.027Z,4.80
2019-05-11T23:32:08.911Z,5.80
2019-05-11T23:33:08.123Z,5.30
2019-05-11T23:34:08.443Z,3.60
2019-05-11T23:35:08.484Z,5.10
2019-05-11T23:36:08.100Z,4.70
2019-05-11T23:37:08.094Z,6.60
2019-05-11T23:38:08.002Z,4.50
2019-05-11T23:39:08.985Z,4.70
2019-05-11T23:40:09.137Z,3.80
2019-05-11T23:41:08.368Z,4.70
2019-05-11T23:42:08.191Z,5.20
2019-05-11T23:43:08.791Z,5.00
2019-05-11T23:44:08.851Z,4.60
2019-05-11T23:45:08.533Z,3.80
2019-05-11T23:46:08.371Z,2.60
2019-05-11T23:47:07.865Z,6.70
2019-05-11T23:48:07.893Z,3.40
2019-05-11T23:49:08.788Z,3.80
2019-05-11T23:50:08.253Z,3.90
2019-05-11T23:51:08.746Z,3.80
2019-05-11T23:52:07.822Z,4.50
2019-05-11T23:53:10.083Z,5.50
2019-05-11T23:54:08.056Z,8.60
2019-05-11T23:55:08.326Z,3.00
2019-05-11T23:56:07.803Z,4.10
2019-05-11T23:57:09.313Z,6.10
2019-05-11T23:58:08.229Z,5.40
2019-05-11T23:59:08.239Z,7.30
